Time;durP1;ratioP1;P1;durP2;ratioP2;P2;SDS_P1;SDS_P2;PMS_P1;PMS_P2;Temp;Humidity;BMP_temperature;BMP_pressure;BME280_temperature;BME280_humidity;BME280_pressure;Samples;Min_cycle;Max_cycle;Signal;HPM_P1;HPM_P2
2022/08/06 00:01:52;;;;;;;14.20;8.28;;;;;;;20.78;87.60;99528.22;1729133;82;21109;-75
2022/08/06 00:04:19;;;;;;;9.05;7.53;;;;;;;20.77;87.51;99521.16;1730210;82;21024;-75
2022/08/06 00:06:46;;;;;;;7.70;7.08;;;;;;;20.77;87.38;99527.00;1728801;83;21078;-75
2022/08/06 00:09:12;;;;;;;12.82;8.43;;;;;;;20.76;87.44;99518.59;1728680;83;21053;-75
2022/08/06 00:11:39;;;;;;;8.45;7.55;;;;;;;20.73;87.53;99520.20;1729910;82;21070;-75
2022/08/06 00:14:07;;;;;;;8.13;7.33;;;;;;;20.70;87.47;99517.26;1728549;83;21550;-75
2022/08/06 00:16:34;;;;;;;9.38;7.47;;;;;;;20.69;87.44;99522.23;1729634;82;21442;-75
2022/08/06 00:19:00;;;;;;;7.90;6.90;;;;;;;20.69;87.41;99533.41;1729396;82;22076;-75
2022/08/06 00:21:27;;;;;;;7.87;7.08;;;;;;;20.68;87.26;99531.23;1734735;82;21578;-75
2022/08/06 00:23:54;;;;;;;7.55;6.85;;;;;;;20.65;87.04;99536.81;1734559;82;21106;-75
2022/08/06 00:26:21;;;;;;;8.88;6.95;;;;;;;20.61;87.01;99540.67;1735381;81;21123;-75
2022/08/06 00:28:47;;;;;;;6.78;6.17;;;;;;;20.59;86.89;99545.25;1735033;82;21083;-75
2022/08/06 00:31:14;;;;;;;7.35;6.53;;;;;;;20.56;87.00;99549.03;1734344;81;21143;-75
2022/08/06 00:33:41;;;;;;;9.53;6.95;;;;;;;20.54;86.98;99548.30;1735323;81;21093;-75
2022/08/06 00:36:08;;;;;;;7.50;6.40;;;;;;;20.51;87.02;99544.52;1734789;82;21154;-75
2022/08/06 00:38:35;;;;;;;7.83;6.42;;;;;;;20.50;87.05;99548.64;1735253;81;21183;-74
2022/08/06 00:41:03;;;;;;;7.17;6.47;;;;;;;20.48;87.05;99546.58;1735908;82;21044;-74
2022/08/06 00:43:29;;;;;;;9.00;6.67;;;;;;;20.47;87.05;99552.88;1734400;81;21427;-75
2022/08/06 00:45:55;;;;;;;12.68;7.40;;;;;;;20.44;87.10;99551.77;1734855;82;21041;-74
2022/08/06 00:48:22;;;;;;;10.20;6.40;;;;;;;20.39;87.29;99547.62;1734580;81;21618;-75
2022/08/06 00:50:48;;;;;;;12.03;6.90;;;;;;;20.38;87.33;99548.59;1734781;82;21506;-75
2022/08/06 00:53:14;;;;;;;6.60;6.00;;;;;;;20.37;87.44;99548.70;1734731;82;21075;-75
2022/08/06 00:55:41;;;;;;;10.18;7.62;;;;;;;20.35;87.61;99547.47;1734881;82;21047;-74
2022/08/06 00:58:08;;;;;;;8.00;6.72;;;;;;;20.32;87.71;99550.86;1734484;82;21648;-74
2022/08/06 01:00:35;;;;;;;8.45;6.45;;;;;;;20.28;87.77;99547.57;1736903;81;21491;-75
2022/08/06 01:03:01;;;;;;;7.10;6.58;;;;;;;20.29;87.75;99549.29;1735665;82;21551;-75
2022/08/06 01:05:28;;;;;;;7.53;6.83;;;;;;;20.27;87.83;99548.52;1735929;82;21001;-75
2022/08/06 01:07:55;;;;;;;14.35;7.17;;;;;;;20.21;88.02;99544.50;1735812;82;21718;-75
2022/08/06 01:10:24;;;;;;;9.25;6.53;;;;;;;20.17;88.04;99546.17;1735759;82;21005;-75
2022/08/06 01:12:51;;;;;;;6.22;5.62;;;;;;;20.14;88.05;99550.40;1736073;82;21610;-75
2022/08/06 01:15:17;;;;;;;9.48;6.37;;;;;;;20.13;88.02;99546.89;1735881;82;21121;-76
2022/08/06 01:18:08;;;;;;;8.78;6.67;;;;;;;20.12;88.04;99553.67;1735328;82;21053;-75
2022/08/06 01:20:48;;;;;;;6.75;6.08;;;;;;;20.11;88.00;99560.00;1725827;82;21015;-75
2022/08/06 01:23:29;;;;;;;10.95;6.62;;;;;;;20.10;87.91;99560.95;1717741;83;21130;-75
2022/08/06 01:26:21;;;;;;;7.10;6.40;;;;;;;20.09;87.63;99561.45;1718046;83;21011;-75
2022/08/06 01:28:53;;;;;;;9.18;6.20;;;;;;;20.07;87.44;99565.18;1717971;83;21223;-75
2022/08/06 01:31:40;;;;;;;8.30;6.37;;;;;;;20.04;87.23;99561.78;1717697;83;22008;-75
2022/08/06 01:34:12;;;;;;;5.37;4.97;;;;;;;20.02;86.90;99558.83;1703848;83;21113;-75
2022/08/06 01:36:42;;;;;;;9.63;5.15;;;;;;;19.99;86.32;99561.76;1721528;83;21533;-75
2022/08/06 01:39:10;;;;;;;9.00;5.55;;;;;;;19.97;85.79;99560.53;1724529;82;22079;-76
2022/08/06 01:41:46;;;;;;;7.28;4.78;;;;;;;19.93;85.37;99556.36;1724774;83;21773;-75
2022/08/06 01:44:16;;;;;;;6.22;4.90;;;;;;;19.89;85.06;99554.89;1724586;83;20992;-76
2022/08/06 01:46:48;;;;;;;6.87;5.17;;;;;;;19.88;84.75;99553.66;1724227;83;21035;-76
2022/08/06 01:49:19;;;;;;;5.47;5.00;;;;;;;19.86;84.68;99553.77;1724608;83;21119;-75
2022/08/06 01:51:46;;;;;;;6.83;4.72;;;;;;;19.84;84.63;99555.71;1724003;83;21115;-76
2022/08/06 01:54:12;;;;;;;5.25;4.85;;;;;;;19.83;84.54;99560.66;1724776;83;21114;-75
2022/08/06 01:56:40;;;;;;;4.92;4.53;;;;;;;19.83;84.45;99563.34;1724543;83;21126;-75
2022/08/06 01:59:08;;;;;;;6.55;4.90;;;;;;;19.82;84.44;99558.48;1724874;83;21083;-75
2022/08/06 02:01:35;;;;;;;6.20;4.80;;;;;;;19.82;84.43;99562.95;1724577;83;21039;-75
2022/08/06 02:04:02;;;;;;;5.53;5.03;;;;;;;19.79;84.43;99562.70;1724573;83;21047;-75
2022/08/06 02:06:34;;;;;;;6.95;5.30;;;;;;;19.77;84.50;99558.42;1724830;83;21064;-75
2022/08/06 02:09:04;;;;;;;8.43;5.28;;;;;;;19.76;84.53;99560.25;1724316;83;21506;-75
2022/08/06 02:11:33;;;;;;;5.90;5.40;;;;;;;19.74;84.45;99559.48;1724723;83;21205;-75
2022/08/06 02:14:00;;;;;;;5.97;5.50;;;;;;;19.72;84.53;99560.55;1724477;83;21149;-75
2022/08/06 02:16:34;;;;;;;5.53;5.03;;;;;;;19.69;84.54;99557.63;1724906;83;22202;-75
2022/08/06 02:19:00;;;;;;;8.08;4.83;;;;;;;19.67;84.54;99553.73;1724571;83;21449;-76
2022/08/06 02:21:26;;;;;;;6.62;5.00;;;;;;;19.66;84.50;99553.35;1735895;81;21025;-75
2022/08/06 02:23:53;;;;;;;5.42;4.92;;;;;;;19.66;84.40;99564.52;1715718;82;21087;-75
2022/08/06 02:26:19;;;;;;;5.00;4.60;;;;;;;19.64;84.34;99560.63;1736577;81;21083;-76
2022/08/06 02:28:47;;;;;;;5.28;4.80;;;;;;;19.62;84.30;99565.72;1730179;82;21621;-75
2022/08/06 02:31:14;;;;;;;4.67;4.12;;;;;;;19.61;84.16;99573.34;1740281;81;21807;-76
2022/08/06 02:33:41;;;;;;;5.40;5.00;;;;;;;19.60;84.05;99572.95;1739347;81;21617;-75
2022/08/06 02:36:19;;;;;;;8.75;5.42;;;;;;;19.59;84.09;99568.59;1730546;82;21103;-75
2022/08/06 02:39:03;;;;;;;6.67;5.00;;;;;;;19.57;84.02;99568.70;1730038;82;21024;-75
2022/08/06 02:41:41;;;;;;;;;;;;;;;19.57;83.96;99570.05;1721823;82;21420;-75
2022/08/06 02:44:16;;;;;;;9.10;4.70;;;;;;;19.55;83.87;99567.97;1727392;82;21086;-76
2022/08/06 02:46:54;;;;;;;7.22;5.00;;;;;;;19.51;83.96;99570.95;1730105;82;26401;-76
2022/08/06 02:49:23;;;;;;;6.15;5.20;;;;;;;19.49;83.99;99576.40;1740201;81;21106;-75
2022/08/06 02:52:01;;;;;;;5.50;4.97;;;;;;;19.48;83.97;99573.34;1738120;81;21729;-76
2022/08/06 02:54:43;;;;;;;7.20;5.00;;;;;;;19.48;83.95;99572.02;1736293;81;21094;-75
2022/08/06 02:57:14;;;;;;;5.28;4.78;;;;;;;19.47;84.00;99581.00;1730179;82;21151;-75
2022/08/06 02:59:45;;;;;;;7.65;4.80;;;;;;;19.41;84.11;99576.92;1736558;81;21012;-75
2022/08/06 03:02:11;;;;;;;11.95;5.37;;;;;;;19.40;84.19;99581.03;1729947;82;21159;-75
2022/08/06 03:04:42;;;;;;;4.87;4.47;;;;;;;19.40;84.29;99584.58;1734071;82;21095;-75
2022/08/06 03:07:13;;;;;;;5.72;4.83;;;;;;;19.39;84.31;99582.02;1709315;82;21170;-75
2022/08/06 03:09:37;;;;;;;6.50;4.87;;;;;;;19.39;84.43;99586.02;1739255;82;21079;-76
2022/08/06 03:12:04;;;;;;;7.70;4.87;;;;;;;19.39;84.51;99588.69;1740283;81;21055;-76
2022/08/06 03:14:31;;;;;;;5.55;5.05;;;;;;;19.41;84.50;99586.76;1740464;81;21142;-75
2022/08/06 03:16:57;;;;;;;6.17;5.67;;;;;;;19.44;84.43;99592.73;1740285;81;21110;-75
2022/08/06 03:19:24;;;;;;;5.97;5.37;;;;;;;19.44;84.45;99590.55;1739747;81;21151;-76
2022/08/06 03:21:50;;;;;;;7.20;6.25;;;;;;;19.45;84.53;99590.91;1740320;81;21929;-76
2022/08/06 03:24:17;;;;;;;5.62;5.22;;;;;;;19.46;84.42;99595.29;1739930;81;21657;-75
2022/08/06 03:26:44;;;;;;;5.60;4.78;;;;;;;19.47;84.20;99595.67;1740241;82;21005;-75
2022/08/06 03:29:10;;;;;;;6.58;5.10;;;;;;;19.49;84.03;99596.41;1739778;82;21059;-75
2022/08/06 03:31:37;;;;;;;7.37;5.45;;;;;;;19.47;84.07;99601.86;1710560;82;21123;-75
2022/08/06 03:34:05;;;;;;;5.75;5.25;;;;;;;19.48;84.07;99608.91;1740237;80;21792;-76
2022/08/06 03:36:31;;;;;;;5.50;5.00;;;;;;;19.50;84.01;99602.11;1737507;81;21062;-76
2022/08/06 03:39:06;;;;;;;8.38;5.55;;;;;;;19.56;83.99;99607.52;1740308;81;21654;-75
2022/08/06 03:41:35;;;;;;;6.83;5.40;;;;;;;19.57;84.00;99606.53;1729581;82;21099;-76
2022/08/06 03:44:02;;;;;;;5.50;5.00;;;;;;;19.59;84.04;99612.15;1729656;82;21102;-76
2022/08/06 03:46:34;;;;;;;6.70;5.20;;;;;;;19.62;84.02;99619.94;1714719;83;21847;-75
2022/08/06 03:49:04;;;;;;;7.60;5.37;;;;;;;19.65;84.10;99619.73;1737199;81;21072;-75
2022/08/06 03:51:31;;;;;;;8.18;5.12;;;;;;;19.70;83.99;99619.87;1730547;82;21075;-75
2022/08/06 03:53:57;;;;;;;6.55;5.58;;;;;;;19.72;83.86;99611.27;1739330;81;21515;-76
2022/08/06 03:56:24;;;;;;;5.40;4.83;;;;;;;19.73;83.76;99617.83;1730514;82;21119;-76
2022/08/06 03:58:51;;;;;;;5.30;4.85;;;;;;;19.76;83.63;99623.48;1739240;81;21142;-75
2022/08/06 04:01:20;;;;;;;5.70;5.20;;;;;;;19.80;83.57;99620.95;1737474;81;21392;-76
2022/08/06 04:03:47;;;;;;;9.60;4.95;;;;;;;19.83;83.43;99618.07;1707642;81;21527;-75
2022/08/06 04:06:13;;;;;;;7.60;4.78;;;;;;;19.85;83.43;99625.02;1738289;81;22291;-77
2022/08/06 04:08:39;;;;;;;6.20;5.00;;;;;;;19.87;83.47;99620.91;1728387;82;21060;-76
2022/08/06 04:11:06;;;;;;;6.22;4.62;;;;;;;19.92;83.40;99622.77;1714227;83;21147;-75
2022/08/06 04:13:32;;;;;;;6.45;5.00;;;;;;;19.98;83.30;99620.97;1739279;81;21140;-75
2022/08/06 04:15:59;;;;;;;6.12;5.40;;;;;;;20.02;83.08;99627.81;1739230;81;22257;-75
2022/08/06 04:18:30;;;;;;;6.10;5.53;;;;;;;20.04;83.05;99625.88;1729409;82;22060;-75
2022/08/06 04:21:00;;;;;;;6.20;5.37;;;;;;;20.08;82.97;99633.67;1722607;82;21520;-76
2022/08/06 04:23:27;;;;;;;5.78;5.17;;;;;;;20.13;83.01;99635.53;1709651;83;21658;-76
2022/08/06 04:25:55;;;;;;;5.75;5.15;;;;;;;20.17;83.03;99635.66;1726123;82;21048;-76
2022/08/06 04:28:24;;;;;;;7.42;5.62;;;;;;;20.19;82.92;99635.06;1725304;82;21646;-76
2022/08/06 04:30:50;;;;;;;6.30;5.67;;;;;;;20.21;82.94;99635.83;1717623;82;21064;-76
2022/08/06 04:33:20;;;;;;;5.83;5.22;;;;;;;20.23;82.92;99637.90;1725907;82;21525;-76
2022/08/06 04:35:46;;;;;;;5.90;5.25;;;;;;;20.28;82.90;99638.91;1725692;82;21107;-75
2022/08/06 04:38:13;;;;;;;9.70;5.42;;;;;;;20.32;83.01;99635.87;1726044;82;20997;-75
2022/08/06 04:40:39;;;;;;;7.92;5.50;;;;;;;20.36;83.00;99628.02;1725165;82;21075;-76
2022/08/06 04:43:08;;;;;;;6.80;5.70;;;;;;;20.39;82.94;99630.47;1658115;82;21076;-76
2022/08/06 04:45:37;;;;;;;6.75;4.92;;;;;;;20.44;82.74;99625.26;1726414;82;21020;-76
2022/08/06 04:48:05;;;;;;;5.75;5.30;;;;;;;20.47;82.82;99630.38;1725700;82;21148;-75
2022/08/06 04:50:32;;;;;;;5.90;5.30;;;;;;;20.53;82.80;99628.60;1726135;82;21601;-75
2022/08/06 04:53:13;;;;;;;6.83;6.10;;;;;;;20.56;82.86;99634.56;1726351;82;21080;-75
2022/08/06 04:55:41;;;;;;;6.22;5.60;;;;;;;20.63;82.63;99635.00;1727132;82;21104;-76
2022/08/06 04:58:09;;;;;;;8.63;5.55;;;;;;;20.70;82.20;99640.24;1726249;82;22048;-75
2022/08/06 05:00:40;;;;;;;8.28;5.55;;;;;;;20.74;81.88;99639.03;1728106;82;21764;-76
2022/08/06 05:03:07;;;;;;;8.78;5.58;;;;;;;20.78;81.76;99636.52;1724234;82;21580;-76
2022/08/06 05:05:43;;;;;;;5.83;5.22;;;;;;;20.82;81.67;99634.45;1724920;82;21053;-76
2022/08/06 05:08:09;;;;;;;;;;;;;;;20.88;81.54;99641.16;1717387;82;21638;-76
2022/08/06 05:10:41;;;;;;;10.65;5.60;;;;;;;20.94;81.21;99639.36;1714540;83;20627;-76
2022/08/06 05:13:08;;;;;;;5.83;5.33;;;;;;;20.99;81.21;99637.19;1715983;82;21242;-75
2022/08/06 05:15:39;;;;;;;6.28;5.60;;;;;;;21.02;81.00;99632.95;1717633;81;21099;-76
2022/08/06 05:18:16;;;;;;;6.20;5.60;;;;;;;21.07;81.08;99635.28;1715526;83;21024;-76
2022/08/06 05:20:47;;;;;;;8.35;5.12;;;;;;;21.12;80.76;99633.95;1690313;83;21063;-75
2022/08/06 05:23:21;;;;;;;7.97;5.28;;;;;;;21.21;80.48;99630.20;1662591;84;21090;-76
2022/08/06 05:25:48;;;;;;;5.45;4.95;;;;;;;21.28;80.59;99638.11;1687170;84;21146;-76
2022/08/06 05:28:16;;;;;;;8.33;5.87;;;;;;;21.35;80.27;99632.67;1662609;84;21113;-76
2022/08/06 05:30:45;;;;;;;8.40;4.80;;;;;;;21.42;80.07;99635.23;1686544;84;21153;-75
2022/08/06 05:33:28;;;;;;;5.35;4.83;;;;;;;21.50;79.92;99630.16;1691974;83;21098;-76
2022/08/06 05:35:57;;;;;;;7.47;5.10;;;;;;;21.60;79.80;99632.10;1692225;83;21015;-75
2022/08/06 05:38:26;;;;;;;7.42;5.00;;;;;;;21.68;79.19;99635.03;1691603;84;21787;-76
2022/08/06 05:40:53;;;;;;;7.28;5.03;;;;;;;21.77;78.55;99640.14;1693195;83;21140;-75
2022/08/06 05:43:20;;;;;;;6.50;4.97;;;;;;;21.84;78.05;99634.19;1688312;84;21062;-76
2022/08/06 05:45:48;;;;;;;9.60;4.80;;;;;;;21.91;77.82;99639.91;1687992;84;21520;-76
2022/08/06 05:48:17;;;;;;;6.78;5.05;;;;;;;22.00;77.33;99642.33;1694890;83;21520;-77
2022/08/06 05:50:49;;;;;;;6.45;5.00;;;;;;;22.06;76.88;99639.17;1687978;84;21169;-75
2022/08/06 05:53:21;;;;;;;5.00;4.50;;;;;;;22.14;76.80;99645.23;1688808;84;21579;-76
2022/08/06 05:55:55;;;;;;;6.12;5.37;;;;;;;22.21;76.71;99640.59;1686703;85;21171;-75
2022/08/06 05:58:29;;;;;;;7.28;5.60;;;;;;;22.31;76.66;99635.37;1693276;84;21088;-77
2022/08/06 06:00:59;;;;;;;6.42;4.87;;;;;;;22.38;76.09;99636.57;1691950;84;21512;-76
2022/08/06 06:03:26;;;;;;;6.20;4.62;;;;;;;22.49;75.88;99637.02;1693072;84;21113;-76
2022/08/06 06:05:54;;;;;;;5.15;4.65;;;;;;;22.57;75.03;99629.19;1692836;84;21363;-76
2022/08/06 06:08:21;;;;;;;6.12;4.90;;;;;;;22.63;74.57;99630.03;1693226;84;21065;-76
2022/08/06 06:10:47;;;;;;;5.10;4.58;;;;;;;22.71;74.55;99624.52;1687367;84;21041;-77
2022/08/06 06:13:14;;;;;;;6.58;4.40;;;;;;;22.77;73.97;99631.55;1688231;84;21124;-77
2022/08/06 06:15:46;;;;;;;10.63;5.40;;;;;;;22.84;73.43;99639.94;1688136;84;21244;-76
2022/08/06 06:18:56;;;;;;;4.78;4.37;;;;;;;22.92;73.35;99636.63;1692351;83;21596;-76
2022/08/06 06:21:40;;;;;;;5.95;5.00;;;;;;;22.99;73.09;99635.96;1698585;82;21607;-75
2022/08/06 06:24:13;;;;;;;9.13;4.75;;;;;;;23.07;73.05;99629.98;1727456;82;20985;-76
2022/08/06 06:26:58;;;;;;;10.82;5.10;;;;;;;23.12;72.96;99619.71;1741937;82;21091;-76
2022/08/06 06:29:52;;;;;;;9.60;5.33;;;;;;;23.21;72.72;99620.75;1742162;82;21617;-76
2022/08/06 06:32:51;;;;;;;6.40;5.50;;;;;;;23.28;72.39;99624.60;1742448;82;21499;-75
2022/08/06 06:35:35;;;;;;;7.65;4.90;;;;;;;23.37;72.33;99625.16;1727660;82;21051;-76
2022/08/06 06:38:09;;;;;;;;;;;;;;;23.45;72.39;99620.95;1730099;82;21709;-75
2022/08/06 06:40:53;;;;;;;6.62;5.20;;;;;;;23.55;72.73;99621.85;1742777;81;20218;-76
2022/08/06 06:43:57;;;;;;;9.20;5.47;;;;;;;23.63;72.34;99623.38;1728018;82;21870;-76
2022/08/06 06:46:38;;;;;;;11.00;5.17;;;;;;;23.74;72.13;99625.98;1696298;82;21135;-76
2022/08/06 06:49:22;;;;;;;12.10;5.50;;;;;;;23.85;71.64;99630.42;1724752;82;21087;-77
2022/08/06 06:51:54;;;;;;;7.72;5.50;;;;;;;23.95;71.84;99627.78;1705323;82;21481;-77
2022/08/06 06:54:27;;;;;;;5.83;5.20;;;;;;;24.06;72.07;99627.69;1669509;85;21044;-77
2022/08/06 06:56:55;;;;;;;6.40;5.03;;;;;;;24.16;71.01;99620.13;1695735;82;21125;-76
2022/08/06 06:59:31;;;;;;;5.33;4.80;;;;;;;24.24;70.54;99620.28;1733700;81;21058;-75
2022/08/06 07:01:57;;;;;;;11.48;5.70;;;;;;;24.31;70.34;99614.73;1730633;81;21090;-75
2022/08/06 07:04:25;;;;;;;11.95;6.28;;;;;;;24.41;70.15;99612.03;1730253;82;21147;-76
2022/08/06 07:06:54;;;;;;;9.93;5.15;;;;;;;24.48;69.88;99612.69;1726559;80;21000;-76
2022/08/06 07:09:23;;;;;;;11.05;5.37;;;;;;;24.57;69.45;99608.84;1741837;82;21146;-75
2022/08/06 07:11:50;;;;;;;7.95;4.80;;;;;;;24.66;69.72;99607.98;1741479;82;21078;-76
2022/08/06 07:14:18;;;;;;;6.97;5.55;;;;;;;24.76;68.71;99607.98;1742408;82;21052;-76
2022/08/06 07:16:45;;;;;;;13.68;5.30;;;;;;;24.83;68.09;99612.67;1742588;81;21032;-75
2022/08/06 07:19:11;;;;;;;6.05;5.20;;;;;;;24.89;68.13;99605.02;1742636;82;21082;-75
2022/08/06 07:21:42;;;;;;;5.37;4.87;;;;;;;24.97;68.29;99605.15;1740004;81;21062;-75
2022/08/06 07:24:11;;;;;;;5.70;5.17;;;;;;;25.02;67.21;99606.91;1730368;82;21287;-75
2022/08/06 07:26:38;;;;;;;8.38;5.47;;;;;;;25.10;67.31;99606.17;1730538;82;21748;-76
2022/08/06 07:29:04;;;;;;;13.78;6.20;;;;;;;25.16;67.61;99598.37;1730843;82;21016;-76
2022/08/06 07:31:32;;;;;;;12.28;5.67;;;;;;;25.23;67.55;99597.29;1730744;82;21039;-76
2022/08/06 07:33:59;;;;;;;10.43;5.15;;;;;;;25.31;66.70;99599.30;1730602;82;21154;-75
2022/08/06 07:36:31;;;;;;;11.73;4.80;;;;;;;25.38;66.69;99603.94;1730282;82;37478;-75
2022/08/06 07:39:02;;;;;;;6.78;5.15;;;;;;;25.46;66.41;99601.88;1728638;82;21087;-75
2022/08/06 07:41:29;;;;;;;7.47;5.08;;;;;;;25.54;66.18;99599.30;1729132;83;21068;-75
2022/08/06 07:43:58;;;;;;;6.08;5.10;;;;;;;25.62;64.85;99608.48;1729167;82;21014;-75
2022/08/06 07:46:43;;;;;;;6.92;5.12;;;;;;;25.67;64.35;99607.53;1729137;83;21540;-75
2022/08/06 07:49:10;;;;;;;;;;;;;;;25.75;64.98;99608.48;1731690;83;21012;-75
2022/08/06 07:51:39;;;;;;;6.12;5.58;;;;;;;25.84;64.70;99604.07;1684113;85;20209;-76
2022/08/06 07:54:08;;;;;;;6.78;6.08;;;;;;;25.91;64.43;99605.16;1729098;83;20997;-76
2022/08/06 07:56:37;;;;;;;11.38;5.65;;;;;;;26.00;64.60;99594.52;1729090;83;21115;-76
2022/08/06 07:59:03;;;;;;;6.33;5.17;;;;;;;26.08;63.12;99600.00;1729041;82;21582;-74
2022/08/06 08:01:31;;;;;;;8.05;5.30;;;;;;;26.15;63.75;99598.39;1728951;83;21095;-75
2022/08/06 08:06:43;;;;;;;9.05;5.67;;;;;;;26.33;63.73;99588.98;1728794;83;21882;-74
2022/08/06 08:09:16;;;;;;;10.15;5.55;;;;;;;26.43;63.05;99587.56;1728639;82;21151;-74
2022/08/06 08:11:45;;;;;;;6.08;5.08;;;;;;;26.49;62.48;99590.98;1729148;83;21133;-75
2022/08/06 08:14:14;;;;;;;17.40;6.00;;;;;;;26.56;62.58;99585.30;1728879;83;21079;-75
2022/08/06 08:16:41;;;;;;;10.38;5.92;;;;;;;26.64;61.88;99588.11;1729012;83;21127;-75
2022/08/06 08:19:31;;;;;;;8.03;6.03;;;;;;;26.69;60.87;99589.84;1728792;82;21626;-75
2022/08/06 08:22:11;;;;;;;6.17;5.58;;;;;;;26.76;62.00;99600.03;1731606;82;21009;-75
2022/08/06 08:24:38;;;;;;;9.18;5.90;;;;;;;26.85;61.62;99595.06;1718668;82;21851;-75
2022/08/06 08:27:10;;;;;;;10.82;5.67;;;;;;;26.92;60.88;99593.42;1737155;82;21536;-75
2022/08/06 08:29:41;;;;;;;8.00;5.55;;;;;;;26.97;60.16;99595.14;1737692;81;21030;-75
2022/08/06 08:32:08;;;;;;;11.53;5.50;;;;;;;27.06;60.20;99590.65;1736414;81;21067;-75
2022/08/06 08:34:35;;;;;;;8.48;5.90;;;;;;;27.11;60.02;99588.83;1737206;81;21361;-75
2022/08/06 08:37:02;;;;;;;6.22;5.62;;;;;;;27.20;60.76;99587.86;1736485;81;21116;-74
2022/08/06 08:39:30;;;;;;;7.60;6.42;;;;;;;27.29;60.29;99586.96;1736248;82;21035;-75
2022/08/06 08:42:13;;;;;;;7.22;5.92;;;;;;;27.38;59.10;99583.80;1736313;81;21024;-74
2022/08/06 08:44:39;;;;;;;6.35;5.80;;;;;;;27.43;59.58;99582.30;1736288;82;21080;-75
2022/08/06 08:47:06;;;;;;;6.30;5.70;;;;;;;27.50;59.71;99584.38;1737268;81;21001;-74
2022/08/06 08:49:46;;;;;;;6.30;5.70;;;;;;;27.57;60.63;99578.17;1718327;82;22090;-74
2022/08/06 08:52:19;;;;;;;7.00;5.10;;;;;;;27.66;59.05;99577.70;1737337;81;21080;-75
2022/08/06 08:54:49;;;;;;;7.25;5.55;;;;;;;27.74;57.16;99579.09;1742702;81;21562;-76
2022/08/06 08:57:16;;;;;;;11.65;5.80;;;;;;;27.80;57.85;99585.70;1737112;81;21043;-74
2022/08/06 08:59:42;;;;;;;18.48;5.78;;;;;;;27.88;57.59;99580.84;1736618;81;21078;-75
2022/08/06 09:02:13;;;;;;;11.48;5.53;;;;;;;27.93;57.07;99583.92;1736377;82;21139;-75
2022/08/06 09:04:40;;;;;;;7.37;5.10;;;;;;;28.01;57.42;99579.91;1736690;81;21099;-75
2022/08/06 09:07:08;;;;;;;8.38;5.60;;;;;;;28.07;57.37;99574.33;1736405;82;21119;-75
2022/08/06 09:09:38;;;;;;;6.83;4.95;;;;;;;28.15;56.80;99577.89;1736947;81;21001;-75
2022/08/06 09:12:07;;;;;;;6.92;5.03;;;;;;;28.24;57.19;99577.92;1724074;82;21037;-75
2022/08/06 09:14:35;;;;;;;11.30;5.12;;;;;;;28.31;56.07;99587.05;1748230;82;21809;-75
2022/08/06 09:17:03;;;;;;;6.28;5.45;;;;;;;28.38;56.04;99590.81;1747919;81;21080;-74
2022/08/06 09:19:30;;;;;;;5.78;4.62;;;;;;;28.45;54.48;99586.42;1736801;82;21081;-75
2022/08/06 09:21:57;;;;;;;10.32;5.55;;;;;;;28.50;54.66;99590.82;1737032;82;21079;-75
2022/08/06 09:24:24;;;;;;;7.17;5.35;;;;;;;28.56;54.35;99592.55;1736818;82;21587;-75
2022/08/06 09:27:16;;;;;;;5.67;5.15;;;;;;;28.60;54.67;99579.03;1737413;81;21504;-75
2022/08/06 09:29:54;;;;;;;5.70;4.95;;;;;;;28.68;54.53;99583.07;1736390;82;21143;-75
2022/08/06 09:32:46;;;;;;;6.62;4.83;;;;;;;28.77;54.46;99579.37;1737393;82;21092;-73
2022/08/06 09:35:27;;;;;;;6.72;5.45;;;;;;;28.85;53.73;99584.78;1729777;82;21199;-75
2022/08/06 09:38:05;;;;;;;5.75;5.20;;;;;;;28.95;52.75;99581.04;1729182;83;21061;-75
2022/08/06 09:40:32;;;;;;;11.00;5.83;;;;;;;29.00;53.20;99582.73;1728797;83;21270;-75
2022/08/06 09:42:58;;;;;;;7.75;5.40;;;;;;;29.08;53.43;99594.42;1729206;83;21531;-75
2022/08/06 09:45:25;;;;;;;5.67;4.50;;;;;;;29.14;53.58;99592.88;1728848;83;21162;-75
2022/08/06 09:48:05;;;;;;;8.10;4.00;;;;;;;29.21;51.92;99594.44;1728813;82;21048;-75
2022/08/06 09:50:41;;;;;;;5.75;4.80;;;;;;;29.27;51.26;99594.59;1728882;83;21111;-75
2022/08/06 09:53:08;;;;;;;5.35;4.85;;;;;;;29.31;51.58;99592.38;1729098;82;21752;-74
2022/08/06 09:55:35;;;;;;;7.58;4.53;;;;;;;29.38;51.64;99591.17;1728599;83;21121;-74
2022/08/06 09:58:03;;;;;;;7.62;5.30;;;;;;;29.44;51.21;99590.49;1728874;82;21049;-74
2022/08/06 10:00:33;;;;;;;9.33;4.72;;;;;;;29.50;51.66;99597.08;1728705;83;21092;-75
2022/08/06 10:03:05;;;;;;;5.40;4.90;;;;;;;29.57;51.95;99592.16;1729033;83;20973;-75
2022/08/06 10:05:31;;;;;;;8.60;4.92;;;;;;;29.66;52.67;99590.25;1728994;83;21118;-74
2022/08/06 10:08:17;;;;;;;7.42;5.00;;;;;;;29.75;51.22;99591.06;1729271;83;21044;-75
2022/08/06 10:10:51;;;;;;;4.70;4.30;;;;;;;29.80;51.13;99596.83;1728854;82;21064;-75
2022/08/06 10:13:23;;;;;;;5.62;4.33;;;;;;;29.88;51.32;99594.61;1728913;82;21017;-75
2022/08/06 10:15:50;;;;;;;4.92;4.45;;;;;;;29.98;49.61;99593.36;1729094;83;21013;-75
2022/08/06 10:18:36;;;;;;;5.22;4.30;;;;;;;30.04;49.59;99590.44;1729123;83;21144;-76
2022/08/06 10:21:09;;;;;;;5.25;4.70;;;;;;;30.12;50.00;99588.20;1728592;83;21120;-75
2022/08/06 10:23:39;;;;;;;11.80;5.25;;;;;;;30.19;50.75;99581.03;1727626;82;21063;-74
2022/08/06 10:26:10;;;;;;;6.90;5.45;;;;;;;30.25;50.26;99576.26;1726628;83;21095;-75
2022/08/06 10:28:38;;;;;;;6.03;5.42;;;;;;;30.32;50.31;99574.50;1726947;83;21117;-75
2022/08/06 10:31:08;;;;;;;5.83;5.00;;;;;;;30.40;50.13;99575.53;1726795;83;21102;-76
2022/08/06 10:33:46;;;;;;;4.72;4.28;;;;;;;30.44;50.31;99576.84;1726739;83;21005;-75
2022/08/06 10:36:14;;;;;;;5.40;4.35;;;;;;;30.50;49.54;99582.92;1718868;83;21041;-75
2022/08/06 10:38:46;;;;;;;9.83;5.10;;;;;;;30.62;48.92;99580.11;1726756;83;21060;-75
2022/08/06 10:41:13;;;;;;;4.80;4.42;;;;;;;30.75;48.70;99576.27;1726945;83;21059;-75
2022/08/06 10:43:40;;;;;;;6.33;4.45;;;;;;;30.87;48.91;99577.19;1726847;82;21265;-76
2022/08/06 10:46:09;;;;;;;7.28;4.62;;;;;;;31.00;48.67;99576.09;1726902;83;21096;-75
2022/08/06 10:48:37;;;;;;;8.35;4.67;;;;;;;31.14;47.08;99577.66;1726698;83;21044;-75
2022/08/06 10:51:06;;;;;;;4.40;4.05;;;;;;;31.19;47.75;99584.74;1730352;82;21084;-75
2022/08/06 10:53:35;;;;;;;3.95;3.62;;;;;;;31.26;48.44;99576.16;1727009;83;21080;-75
2022/08/06 10:56:04;;;;;;;8.20;4.28;;;;;;;31.33;47.26;99578.45;1727026;82;21118;-75
2022/08/06 10:58:31;;;;;;;3.98;3.67;;;;;;;31.40;46.95;99579.91;1727163;83;21100;-75
2022/08/06 11:01:04;;;;;;;6.15;3.83;;;;;;;31.51;46.78;99575.41;1706096;83;21067;-75
2022/08/06 11:04:08;;;;;;;4.62;3.62;;;;;;;31.63;46.35;99582.05;1727456;83;21096;-75
2022/08/06 11:07:16;;;;;;;4.67;3.90;;;;;;;31.71;45.96;99575.69;1726459;82;21044;-75
2022/08/06 11:10:07;;;;;;;4.67;3.60;;;;;;;31.84;45.70;99573.14;1727214;82;21535;-74
2022/08/06 11:12:46;;;;;;;3.72;3.50;;;;;;;31.96;45.14;99578.06;1734608;82;21658;-75
2022/08/06 11:15:12;;;;;;;3.67;3.20;;;;;;;32.00;45.11;99569.86;1734729;82;21068;-75
2022/08/06 11:17:53;;;;;;;3.95;3.27;;;;;;;32.04;44.26;99575.23;1734581;82;21013;-75
2022/08/06 11:20:36;;;;;;;3.77;3.12;;;;;;;32.07;43.67;99568.09;1735037;82;21060;-76
2022/08/06 11:23:09;;;;;;;5.45;3.12;;;;;;;32.10;44.00;99560.91;1743203;81;21742;-75
2022/08/06 11:25:50;;;;;;;5.25;2.70;;;;;;;32.18;43.44;99569.48;1722687;82;21039;-75
2022/08/06 11:28:29;;;;;;;3.22;2.92;;;;;;;32.20;41.74;99565.52;1748206;82;21047;-75
2022/08/06 11:30:59;;;;;;;3.65;2.95;;;;;;;32.22;42.61;99562.08;1748399;81;21138;-75
2022/08/06 11:33:37;;;;;;;7.40;3.02;;;;;;;32.27;41.87;99563.39;1747920;81;21082;-75
2022/08/06 11:36:07;;;;;;;3.42;3.10;;;;;;;32.29;41.43;99568.95;1735067;82;21139;-75
2022/08/06 11:38:57;;;;;;;4.12;2.92;;;;;;;32.33;42.14;99566.69;1753722;81;21071;-75
2022/08/06 11:41:28;;;;;;;5.72;2.70;;;;;;;32.35;42.65;99560.55;1754205;81;21080;-75
2022/08/06 11:44:05;;;;;;;3.98;2.92;;;;;;;32.44;41.92;99567.55;1752272;81;21125;-75
2022/08/06 11:46:39;;;;;;;3.60;3.30;;;;;;;32.51;41.18;99563.00;1753757;81;21098;-75
2022/08/06 11:49:32;;;;;;;3.47;3.17;;;;;;;32.55;42.17;99562.95;1753771;81;21245;-75
2022/08/06 11:51:59;;;;;;;6.42;3.60;;;;;;;32.62;42.60;99558.13;1754045;81;21590;-76
2022/08/06 11:54:32;;;;;;;5.92;3.02;;;;;;;32.65;41.09;99571.33;1753856;81;21102;-75
2022/08/06 11:57:04;;;;;;;4.20;3.00;;;;;;;32.69;42.46;99563.94;1754039;81;21601;-75